Time;durP1;ratioP1;P1;durP2;ratioP2;P2;SDS_P1;SDS_P2;PMS_P1;PMS_P2;Temp;Humidity;BMP_temperature;BMP_pressure;BME280_temperature;BME280_humidity;BME280_pressure;Samples;Min_cycle;Max_cycle;Signal;HPM_P1;HPM_P2
2021/12/27 00:00:08;;;;;;;40.50;19.35;;;-4.30;69.10;;;;;;5034341;28;20493;-78
2021/12/27 00:02:33;;;;;;;35.17;16.40;;;-4.30;69.00;;;;;;5033554;28;20029;-80
2021/12/27 00:04:59;;;;;;;28.52;13.00;;;-4.40;68.90;;;;;;5035816;28;20055;-79
2021/12/27 00:07:25;;;;;;;34.67;15.45;;;-4.30;69.20;;;;;;5035563;28;20179;-81
2021/12/27 00:09:50;;;;;;;37.58;14.82;;;-4.40;69.20;;;;;;5051754;28;20037;-79
2021/12/27 00:12:16;;;;;;;37.35;14.50;;;-4.40;69.10;;;;;;5051472;28;20547;-80
2021/12/27 00:14:42;;;;;;;27.02;11.80;;;-4.50;69.10;;;;;;5053614;28;20072;-79
2021/12/27 00:17:07;;;;;;;23.92;10.60;;;-4.60;69.40;;;;;;5055157;28;20029;-77
2021/12/27 00:19:33;;;;;;;49.38;14.95;;;-4.50;69.70;;;;;;5053417;28;20021;-78
2021/12/27 00:21:59;;;;;;;40.72;14.55;;;-4.50;69.60;;;;;;5053373;28;20033;-78
2021/12/27 00:24:24;;;;;;;30.05;13.65;;;-4.50;69.40;;;;;;5054421;28;20352;-81
2021/12/27 00:26:52;;;;;;;31.30;14.63;;;-4.60;69.40;;;;;;5047008;28;20041;-79
2021/12/27 00:29:17;;;;;;;26.70;13.52;;;-4.60;69.60;;;;;;5034844;28;20032;-79
2021/12/27 00:31:43;;;;;;;28.30;12.50;;;-4.70;69.70;;;;;;5032995;28;20471;-76
2021/12/27 00:34:09;;;;;;;23.50;10.75;;;-4.70;70.00;;;;;;5034253;28;20429;-78
2021/12/27 00:36:35;;;;;;;18.58;9.85;;;-4.70;70.00;;;;;;5034246;28;20022;-77
2021/12/27 00:39:00;;;;;;;26.63;11.23;;;-4.60;70.00;;;;;;5034151;28;20148;-77
2021/12/27 00:41:26;;;;;;;28.95;12.35;;;-4.60;69.90;;;;;;5040317;28;20476;-77
2021/12/27 00:43:52;;;;;;;24.40;10.10;;;-4.70;70.00;;;;;;5050711;28;20037;-78
2021/12/27 00:46:17;;;;;;;46.08;19.40;;;-4.70;70.10;;;;;;5052818;28;20036;-80
2021/12/27 00:48:43;;;;;;;38.72;17.33;;;-4.80;70.20;;;;;;5054048;28;20028;-79
2021/12/27 00:51:10;;;;;;;52.58;21.17;;;-4.90;70.20;;;;;;5053028;28;20128;-79
2021/12/27 00:53:36;;;;;;;50.20;19.55;;;-5.00;70.40;;;;;;5052807;28;20028;-79
2021/12/27 00:56:02;;;;;;;28.00;12.88;;;-5.10;70.60;;;;;;5038300;28;20029;-77
2021/12/27 00:58:27;;;;;;;32.22;12.52;;;-5.10;71.00;;;;;;5033096;28;20032;-78
2021/12/27 01:00:53;;;;;;;26.02;13.23;;;-5.20;71.30;;;;;;5033923;28;20121;-79
2021/12/27 01:03:20;;;;;;;30.77;15.25;;;-5.10;71.50;;;;;;5053749;28;20037;-78
2021/12/27 01:05:46;;;;;;;35.10;16.05;;;-4.90;71.50;;;;;;5053727;28;20116;-81
2021/12/27 01:08:12;;;;;;;37.90;19.40;;;-4.90;71.20;;;;;;5052524;28;20471;-80
2021/12/27 01:13:36;;;;;;;39.58;18.40;;;-4.70;70.90;;;;;;5033935;28;20053;-79
2021/12/27 01:18:35;;;;;;;22.83;13.30;;;-4.70;70.70;;;;;;5032322;28;20029;-80
2021/12/27 01:21:01;;;;;;;28.90;14.55;;;-4.70;70.70;;;;;;5032488;28;20053;-81
2021/12/27 01:23:28;;;;;;;26.02;13.60;;;-4.70;70.60;;;;;;5032202;28;20156;-80
2021/12/27 01:25:53;;;;;;;24.50;12.32;;;-4.70;70.60;;;;;;5033383;28;20124;-77
2021/12/27 01:28:20;;;;;;;26.83;13.13;;;-4.70;70.60;;;;;;5034193;28;20061;-77
2021/12/27 01:30:48;;;;;;;33.22;14.65;;;-4.70;70.50;;;;;;5039724;28;20025;-79
2021/12/27 01:33:19;;;;;;;27.23;13.60;;;-4.80;70.40;;;;;;5033652;28;20452;-81
2021/12/27 01:35:46;;;;;;;20.52;10.65;;;-4.70;71.20;;;;;;5049999;28;20029;-81
2021/12/27 01:38:13;;;;;;;17.88;12.05;;;-4.70;70.60;;;;;;5033433;28;20032;-78
2021/12/27 01:40:41;;;;;;;32.10;14.15;;;-4.70;70.70;;;;;;5033593;28;20049;-80
2021/12/27 01:43:08;;;;;;;26.73;11.50;;;-4.70;70.60;;;;;;5033845;28;20037;-79
2021/12/27 01:45:38;;;;;;;30.33;14.80;;;-4.70;70.70;;;;;;5044310;28;20468;-80
2021/12/27 01:48:05;;;;;;;38.97;16.02;;;-4.60;70.70;;;;;;5036858;28;20029;-82
2021/12/27 01:50:31;;;;;;;31.80;16.08;;;-4.60;70.60;;;;;;5037666;28;20029;-82
2021/12/27 01:52:57;;;;;;;29.20;13.38;;;-4.60;70.50;;;;;;5036323;28;20026;-80
2021/12/27 01:55:22;;;;;;;35.35;15.32;;;-4.70;70.30;;;;;;5039684;28;20025;-78
2021/12/27 01:57:48;;;;;;;35.55;13.65;;;-4.80;70.40;;;;;;5050178;28;20092;-82
2021/12/27 02:00:14;;;;;;;32.58;14.75;;;-5.00;70.60;;;;;;5055964;28;20067;-83
2021/12/27 02:02:41;;;;;;;38.35;16.90;;;-5.00;70.90;;;;;;5057573;28;20459;-82
2021/12/27 02:05:07;;;;;;;31.13;14.95;;;-5.10;71.10;;;;;;5056115;28;20056;-79
2021/12/27 02:07:32;;;;;;;43.72;15.73;;;-5.20;71.30;;;;;;5048953;28;20110;-80
2021/12/27 02:10:07;;;;;;;26.17;12.98;;;-5.20;71.50;;;;;;5037314;28;20349;-77
2021/12/27 02:12:33;;;;;;;35.17;14.38;;;-5.20;71.80;;;;;;5035962;28;20053;-78
2021/12/27 02:15:03;;;;;;;30.45;14.48;;;-5.10;71.90;;;;;;5047220;28;20438;-79
2021/12/27 02:17:28;;;;;;;33.92;14.38;;;-5.20;71.80;;;;;;5057392;28;20108;-80
2021/12/27 02:19:54;;;;;;;25.50;12.13;;;-5.20;71.80;;;;;;5056814;28;20432;-80
2021/12/27 02:22:21;;;;;;;37.05;15.27;;;-5.30;71.70;;;;;;5052289;28;20075;-80
2021/12/27 02:24:47;;;;;;;35.38;14.43;;;-5.40;71.80;;;;;;5043892;28;20037;-79
2021/12/27 02:27:15;;;;;;;28.95;13.40;;;-5.40;72.10;;;;;;5035449;28;20072;-80
2021/12/27 02:29:41;;;;;;;24.50;12.48;;;-5.40;72.30;;;;;;5035133;28;20357;-80
2021/12/27 02:32:07;;;;;;;32.50;14.68;;;-5.40;72.40;;;;;;5035379;28;20026;-81
2021/12/27 02:34:32;;;;;;;32.08;15.77;;;-5.40;72.40;;;;;;5046860;28;20039;-80
2021/12/27 02:36:59;;;;;;;34.55;16.67;;;-5.40;72.30;;;;;;5056939;28;20032;-81
2021/12/27 02:39:25;;;;;;;28.52;12.35;;;-5.40;72.40;;;;;;5055435;28;20032;-77
2021/12/27 02:41:52;;;;;;;44.72;18.60;;;-5.50;72.20;;;;;;5056252;28;20478;-77
2021/12/27 02:44:18;;;;;;;45.00;19.30;;;-5.60;72.10;;;;;;5055145;28;20025;-78
2021/12/27 02:46:44;;;;;;;26.67;11.98;;;-5.80;72.40;;;;;;5055407;28;20395;-80
2021/12/27 02:49:09;;;;;;;27.13;15.73;;;-5.80;73.60;;;;;;5046668;28;20029;-82
2021/12/27 02:51:35;;;;;;;25.88;14.55;;;-5.80;73.20;;;;;;5035099;28;20036;-80
2021/12/27 02:54:01;;;;;;;39.90;16.42;;;-5.80;73.10;;;;;;5035200;28;20052;-81
2021/12/27 02:56:29;;;;;;;33.13;14.63;;;-5.80;73.00;;;;;;5035188;28;20018;-81
2021/12/27 02:58:56;;;;;;;26.75;12.18;;;-5.80;73.10;;;;;;5036462;28;20105;-81
2021/12/27 03:01:23;;;;;;;27.67;12.35;;;-5.70;73.20;;;;;;5036280;28;20025;-78
2021/12/27 03:03:53;;;;;;;26.33;13.88;;;-5.60;73.20;;;;;;5040824;28;20079;-81
2021/12/27 03:06:19;;;;;;;30.65;15.73;;;-5.50;73.20;;;;;;5056074;28;20056;-80
2021/12/27 03:08:46;;;;;;;33.78;17.58;;;-5.60;72.60;;;;;;5055002;28;20032;-79
2021/12/27 03:11:12;;;;;;;53.83;19.92;;;-5.70;72.60;;;;;;5043253;28;20367;-77
2021/12/27 03:13:43;;;;;;;58.70;22.08;;;-5.80;72.50;;;;;;5035277;28;20061;-77
2021/12/27 03:16:11;;;;;;;52.75;21.00;;;-5.90;72.70;;;;;;5034741;28;20067;-79
2021/12/27 03:18:39;;;;;;;64.25;25.40;;;-6.00;73.10;;;;;;5034818;28;20387;-79
2021/12/27 03:21:06;;;;;;;49.75;20.27;;;-6.10;73.30;;;;;;5034547;28;20021;-78
2021/12/27 03:23:32;;;;;;;70.53;24.75;;;-6.10;73.50;;;;;;5034480;28;20069;-78
2021/12/27 03:25:58;;;;;;;71.22;30.05;;;-6.10;73.70;;;;;;5035531;28;20037;-82
2021/12/27 03:28:24;;;;;;;54.15;23.75;;;-6.10;73.80;;;;;;5034777;28;20074;-80
2021/12/27 03:30:50;;;;;;;67.82;26.63;;;-6.00;73.70;;;;;;5035695;28;20025;-78
2021/12/27 03:33:20;;;;;;;67.65;30.05;;;-6.00;73.50;;;;;;5051076;28;20055;-77
2021/12/27 03:36:03;;;;;;;70.50;36.60;;;-6.00;73.60;;;;;;5034378;28;20131;-80
2021/12/27 03:38:45;;;;;;;87.05;38.38;;;-5.90;73.90;;;;;;5034378;28;20056;-80
2021/12/27 03:41:16;;;;;;;61.67;26.02;;;-5.90;73.60;;;;;;5034184;28;20499;-78
2021/12/27 03:43:42;;;;;;;64.97;25.67;;;-5.90;73.20;;;;;;5034156;28;20030;-76
2021/12/27 03:46:08;;;;;;;72.38;27.23;;;-5.90;73.20;;;;;;5035475;28;20030;-78
2021/12/27 03:48:34;;;;;;;63.63;25.13;;;-6.00;73.30;;;;;;5033848;28;20387;-76
2021/12/27 03:51:01;;;;;;;58.05;24.70;;;-6.00;73.60;;;;;;5035297;28;20034;-78
2021/12/27 03:53:26;;;;;;;57.45;23.88;;;-6.10;73.80;;;;;;5048800;28;20040;-80
2021/12/27 03:55:52;;;;;;;46.78;18.48;;;-6.10;74.10;;;;;;5054699;28;20024;-80
2021/12/27 03:58:31;;;;;;;50.85;22.45;;;-6.10;74.70;;;;;;5053672;28;20387;-79
2021/12/27 04:01:16;;;;;;;37.85;19.70;;;-5.90;75.40;;;;;;5053922;28;20028;-76
2021/12/27 04:03:49;;;;;;;34.13;18.95;;;-5.70;75.30;;;;;;5055090;28;20032;-76
2021/12/27 04:06:17;;;;;;;35.03;15.25;;;-5.70;75.10;;;;;;5054837;28;20033;-75
2021/12/27 04:08:42;;;;;;;45.95;16.08;;;-5.60;75.20;;;;;;5037893;28;20107;-77
2021/12/27 04:11:08;;;;;;;54.15;19.52;;;-5.40;75.40;;;;;;5033851;28;20034;-78
2021/12/27 04:13:34;;;;;;;65.72;20.63;;;-5.30;75.40;;;;;;5034756;28;20120;-79
2021/12/27 04:16:01;;;;;;;55.75;21.65;;;-5.20;75.20;;;;;;5046865;28;20037;-78
2021/12/27 04:18:26;;;;;;;69.97;25.98;;;-5.00;75.10;;;;;;5053418;28;20467;-78
2021/12/27 04:20:53;;;;;;;62.50;24.00;;;-4.90;74.60;;;;;;5054560;28;20032;-77
2021/12/27 04:23:19;;;;;;;57.55;23.33;;;-4.90;74.50;;;;;;5046531;28;20035;-79
2021/12/27 04:25:45;;;;;;;48.05;19.42;;;-4.90;74.40;;;;;;5033548;28;20396;-77
2021/12/27 04:28:11;;;;;;;50.72;20.60;;;-4.90;74.60;;;;;;5033175;28;20029;-79
2021/12/27 04:30:37;;;;;;;61.85;24.45;;;-4.80;74.70;;;;;;5034991;28;20039;-79
2021/12/27 04:33:03;;;;;;;54.13;21.05;;;-4.70;74.50;;;;;;5034292;28;20026;-78
2021/12/27 04:35:30;;;;;;;50.72;19.83;;;-4.60;74.40;;;;;;5034843;28;20087;-79
2021/12/27 04:37:57;;;;;;;39.70;19.55;;;-4.60;74.20;;;;;;5042137;28;20040;-76
2021/12/27 04:40:26;;;;;;;45.08;20.05;;;-4.60;74.60;;;;;;5053330;28;20036;-80
2021/12/27 04:43:07;;;;;;;45.22;20.38;;;-4.50;74.50;;;;;;5052094;28;20515;-79
2021/12/27 04:45:33;;;;;;;38.92;17.90;;;-4.50;74.40;;;;;;5032184;28;20029;-79
2021/12/27 04:47:58;;;;;;;54.22;21.45;;;-4.40;74.40;;;;;;5040061;28;20064;-82
2021/12/27 04:50:25;;;;;;;42.13;19.50;;;-4.30;74.40;;;;;;5042898;28;20387;-80
2021/12/27 04:52:53;;;;;;;53.63;21.67;;;-4.30;74.30;;;;;;5044125;28;20547;-78
2021/12/27 04:55:21;;;;;;;41.70;19.63;;;-4.30;74.20;;;;;;5034024;28;20033;-78
2021/12/27 04:57:47;;;;;;;46.45;18.75;;;-4.30;74.50;;;;;;5049234;28;20057;-79
2021/12/27 05:00:13;;;;;;;40.22;21.70;;;-4.10;74.80;;;;;;5041118;28;20079;-80
2021/12/27 05:02:39;;;;;;;47.35;21.75;;;-4.00;74.50;;;;;;5039514;28;20522;-78
2021/12/27 05:05:05;;;;;;;46.00;20.67;;;-4.00;74.40;;;;;;5032623;28;20053;-80
2021/12/27 05:07:31;;;;;;;55.58;25.48;;;-3.90;74.30;;;;;;5032592;28;20121;-81
2021/12/27 05:09:57;;;;;;;57.90;23.83;;;-3.90;74.20;;;;;;5035856;28;20121;-84
2021/12/27 05:12:22;;;;;;;72.55;24.38;;;-3.90;74.20;;;;;;5046624;28;20053;-77
2021/12/27 05:14:48;;;;;;;75.38;28.15;;;-3.90;74.30;;;;;;5038154;28;20450;-78
2021/12/27 05:17:14;;;;;;;74.35;26.92;;;-3.80;74.20;;;;;;5047058;28;20082;-84
2021/12/27 05:19:39;;;;;;;71.28;29.23;;;-3.90;74.20;;;;;;5032024;28;20025;-80
2021/12/27 05:22:05;;;;;;;72.95;27.70;;;-3.90;74.30;;;;;;5036242;28;20529;-81
2021/12/27 05:24:31;;;;;;;75.65;27.98;;;-3.90;74.60;;;;;;5046743;28;20037;-82
2021/12/27 05:26:56;;;;;;;68.35;26.42;;;-3.80;74.50;;;;;;5042681;28;20040;-79
2021/12/27 05:29:22;;;;;;;69.05;27.30;;;-3.70;74.70;;;;;;5046232;28;20057;-78
2021/12/27 05:31:48;;;;;;;72.97;26.65;;;-3.70;74.50;;;;;;5049141;28;20021;-83
2021/12/27 05:34:14;;;;;;;69.53;27.90;;;-3.80;74.40;;;;;;5031650;28;20033;-81
2021/12/27 05:36:42;;;;;;;75.30;27.08;;;-3.80;74.60;;;;;;5047902;28;20651;-77
2021/12/27 05:39:09;;;;;;;76.28;30.25;;;-3.80;74.80;;;;;;5044319;28;20033;-84
2021/12/27 05:41:35;;;;;;;56.88;24.83;;;-3.80;75.00;;;;;;5046699;28;20062;-81
2021/12/27 05:44:00;;;;;;;53.72;23.55;;;-3.80;75.00;;;;;;5048569;28;20032;-78
2021/12/27 05:46:26;;;;;;;56.47;23.92;;;-3.80;75.00;;;;;;5068615;28;20039;-84
2021/12/27 05:48:51;;;;;;;43.83;19.90;;;-3.70;75.40;;;;;;5046314;28;20365;-79
2021/12/27 05:51:17;;;;;;;64.15;27.85;;;-3.70;75.20;;;;;;5049138;28;20037;-85
2021/12/27 05:53:43;;;;;;;65.43;30.15;;;-3.70;75.20;;;;;;5053315;28;20112;-83
2021/12/27 05:56:09;;;;;;;54.00;26.95;;;-3.60;75.40;;;;;;5037182;28;20030;-85
2021/12/27 05:58:34;;;;;;;70.43;29.48;;;-3.60;75.00;;;;;;5037694;28;20111;-83
2021/12/27 06:01:00;;;;;;;57.25;26.50;;;-3.60;75.00;;;;;;5044015;28;20032;-84
2021/12/27 06:03:26;;;;;;;40.50;17.73;;;-3.60;75.00;;;;;;5034045;28;20034;-83
2021/12/27 06:05:51;;;;;;;23.25;12.13;;;-3.60;75.10;;;;;;5036119;28;20037;-85
2021/12/27 06:08:17;;;;;;;31.58;13.98;;;-3.60;75.30;;;;;;5051917;28;20033;-85
2021/12/27 06:10:43;;;;;;;22.08;10.32;;;-3.50;75.40;;;;;;5043771;28;20104;-85
2021/12/27 06:13:08;;;;;;;17.13;8.90;;;-3.50;75.60;;;;;;5040879;28;20053;-85
2021/12/27 06:15:34;;;;;;;16.73;7.57;;;-3.50;75.60;;;;;;5041180;28;20032;-85
2021/12/27 06:18:00;;;;;;;17.20;7.72;;;-3.50;75.50;;;;;;5036061;28;20040;-83
2021/12/27 06:20:26;;;;;;;15.95;8.50;;;-3.40;75.70;;;;;;5035247;28;20021;-85
2021/12/27 06:22:55;;;;;;;17.48;8.30;;;-3.40;75.70;;;;;;5049952;28;20021;-85
2021/12/27 06:25:21;;;;;;;15.70;7.90;;;-3.30;75.80;;;;;;5052564;28;20040;-81
2021/12/27 06:27:47;;;;;;;23.17;10.43;;;-3.30;75.70;;;;;;5036537;28;20037;-83
2021/12/27 06:30:14;;;;;;;19.33;8.98;;;-3.30;75.60;;;;;;5033122;28;20464;-78
2021/12/27 06:32:40;;;;;;;20.63;9.90;;;-3.30;75.60;;;;;;5040345;28;20028;-81
2021/12/27 06:35:10;;;;;;;19.88;9.48;;;-3.30;75.60;;;;;;5052384;28;20124;-83
2021/12/27 06:37:36;;;;;;;26.77;11.60;;;-3.30;76.30;;;;;;5053567;28;20099;-79
2021/12/27 06:40:03;;;;;;;14.70;8.10;;;-3.30;75.70;;;;;;5039451;28;20040;-83
2021/12/27 06:42:28;;;;;;;24.38;12.10;;;-3.30;76.00;;;;;;5053330;28;20541;-80
2021/12/27 06:44:54;;;;;;;19.27;9.93;;;-3.30;76.20;;;;;;5054008;28;20045;-81
2021/12/27 06:47:20;;;;;;;18.30;8.82;;;-3.40;76.40;;;;;;5037354;28;20040;-81
2021/12/27 06:49:47;;;;;;;17.55;8.25;;;-3.30;76.70;;;;;;5054985;28;20037;-80
2021/12/27 06:52:13;;;;;;;19.95;9.43;;;-3.30;76.30;;;;;;5042885;28;20052;-81
2021/12/27 06:54:40;;;;;;;21.98;9.48;;;-3.30;76.40;;;;;;5044814;28;20060;-82
2021/12/27 06:57:06;;;;;;;46.85;17.52;;;-3.20;76.50;;;;;;5035542;28;20440;-81
2021/12/27 06:59:32;;;;;;;58.47;21.02;;;-3.20;76.50;;;;;;5036253;28;20104;-75
2021/12/27 07:01:57;;;;;;;65.22;24.13;;;-3.10;76.60;;;;;;5036001;28;20479;-81
2021/12/27 07:04:23;;;;;;;29.00;13.50;;;-3.10;76.70;;;;;;5035347;28;20124;-81
2021/12/27 07:06:49;;;;;;;27.17;12.63;;;-3.10;76.60;;;;;;5035095;28;20132;-82
2021/12/27 07:09:15;;;;;;;26.90;12.50;;;-3.00;76.80;;;;;;5042687;28;20049;-83
2021/12/27 07:11:41;;;;;;;29.05;12.77;;;-3.00;77.00;;;;;;5055423;28;20049;-77
2021/12/27 07:14:07;;;;;;;14.65;7.90;;;-2.90;77.00;;;;;;5050569;28;20086;-81
2021/12/27 07:16:33;;;;;;;15.70;7.50;;;-2.90;76.90;;;;;;5055224;28;20025;-78
2021/12/27 07:18:59;;;;;;;17.65;8.32;;;-2.90;76.80;;;;;;5054499;28;20028;-82
2021/12/27 07:21:24;;;;;;;20.55;9.30;;;-2.80;76.80;;;;;;5054605;28;20021;-76
2021/12/27 07:23:50;;;;;;;16.98;9.18;;;-2.80;76.70;;;;;;5041464;28;20033;-76
2021/12/27 07:26:16;;;;;;;21.05;9.57;;;-2.80;76.70;;;;;;5034388;28;20044;-82
2021/12/27 07:28:41;;;;;;;29.08;12.85;;;-2.80;76.80;;;;;;5034435;28;20037;-77
2021/12/27 07:31:09;;;;;;;24.90;11.65;;;-2.80;76.90;;;;;;5034582;28;20044;-82
2021/12/27 07:33:35;;;;;;;27.63;12.30;;;-2.70;77.00;;;;;;5035274;28;20043;-79
2021/12/27 07:36:01;;;;;;;35.53;14.85;;;-2.70;76.90;;;;;;5038430;28;20038;-77
2021/12/27 07:38:27;;;;;;;37.97;15.45;;;-2.70;76.90;;;;;;5035522;28;20052;-80
2021/12/27 07:40:52;;;;;;;36.10;14.50;;;-2.70;77.00;;;;;;5034782;28;20026;-80
2021/12/27 07:43:18;;;;;;;35.17;14.98;;;-2.70;77.00;;;;;;5034158;28;20032;-82
2021/12/27 07:45:44;;;;;;;21.95;10.57;;;-2.70;76.80;;;;;;5035180;28;20136;-81
2021/12/27 07:48:10;;;;;;;23.10;10.75;;;-2.70;76.90;;;;;;5034723;28;20459;-78
2021/12/27 07:50:37;;;;;;;16.23;7.88;;;-2.70;77.10;;;;;;5046653;28;20030;-81
2021/12/27 07:53:03;;;;;;;18.42;8.02;;;-2.70;77.20;;;;;;5035418;28;20044;-79
2021/12/27 07:55:29;;;;;;;18.45;7.75;;;-2.70;77.30;;;;;;5035973;28;20125;-81
2021/12/27 07:57:56;;;;;;;19.40;8.35;;;-2.70;77.30;;;;;;5033877;28;20061;-82
2021/12/27 08:00:22;;;;;;;21.00;9.48;;;-2.70;77.20;;;;;;5042937;28;20021;-82
2021/12/27 08:02:48;;;;;;;20.45;8.43;;;-2.60;77.30;;;;;;5047620;28;20030;-82
2021/12/27 08:05:15;;;;;;;23.05;10.55;;;-2.60;77.30;;;;;;5052695;28;20021;-82
2021/12/27 08:07:42;;;;;;;21.92;10.18;;;-2.60;77.30;;;;;;5051904;28;20491;-82
2021/12/27 08:10:08;;;;;;;17.08;8.82;;;-2.60;77.10;;;;;;5042195;28;20025;-79
2021/12/27 08:12:34;;;;;;;20.05;10.73;;;-2.60;77.50;;;;;;5045130;28;20543;-81
2021/12/27 08:15:00;;;;;;;17.25;8.43;;;-2.50;77.60;;;;;;5060687;28;20101;-82
2021/12/27 08:17:25;;;;;;;25.55;11.93;;;-2.50;77.10;;;;;;5042036;28;20025;-76
2021/12/27 08:19:51;;;;;;;20.75;9.80;;;-2.40;77.10;;;;;;5044523;28;20028;-77
2021/12/27 08:22:17;;;;;;;26.02;10.80;;;-2.30;76.90;;;;;;5053267;28;20017;-76
2021/12/27 08:24:43;;;;;;;23.38;10.10;;;-2.30;76.60;;;;;;5048973;28;20045;-81
2021/12/27 08:27:09;;;;;;;16.80;7.78;;;-2.40;76.50;;;;;;5047579;28;20048;-84
2021/12/27 08:29:34;;;;;;;28.73;11.90;;;-2.40;76.60;;;;;;5040602;28;20017;-79
2021/12/27 08:32:00;;;;;;;17.65;8.00;;;-2.40;76.60;;;;;;5040066;28;20029;-75
2021/12/27 08:34:27;;;;;;;20.48;8.25;;;-2.30;76.80;;;;;;5052232;28;20033;-85
2021/12/27 08:36:53;;;;;;;18.70;7.93;;;-2.30;76.60;;;;;;5038403;28;20570;-78
2021/12/27 08:39:19;;;;;;;21.73;11.57;;;-2.30;76.60;;;;;;5039648;28;20073;-82
2021/12/27 08:41:45;;;;;;;38.95;13.40;;;-2.30;76.30;;;;;;5049186;28;20116;-86
2021/12/27 08:44:10;;;;;;;17.23;7.55;;;-2.40;76.00;;;;;;5040822;28;20530;-78
2021/12/27 08:46:36;;;;;;;14.00;7.32;;;-2.40;76.40;;;;;;5037708;28;20053;-83
2021/12/27 08:49:03;;;;;;;23.45;9.75;;;-2.50;76.70;;;;;;5046055;28;20374;-82
2021/12/27 08:51:30;;;;;;;18.13;10.05;;;-2.50;76.50;;;;;;5045151;28;20032;-82
2021/12/27 08:53:56;;;;;;;16.25;7.60;;;-2.60;76.70;;;;;;5038205;28;20075;-78
2021/12/27 08:56:22;;;;;;;20.70;9.88;;;-2.60;77.00;;;;;;5042565;28;20032;-83
2021/12/27 08:58:48;;;;;;;20.73;9.57;;;-2.50;77.20;;;;;;5043186;28;20071;-81
2021/12/27 09:01:13;;;;;;;20.83;10.88;;;-2.50;76.80;;;;;;5034649;28;20077;-82
2021/12/27 09:03:39;;;;;;;26.30;9.15;;;-2.50;76.60;;;;;;5046229;28;20044;-83
2021/12/27 09:06:05;;;;;;;25.52;10.68;;;-2.50;76.60;;;;;;5048522;28;20021;-85
2021/12/27 09:08:31;;;;;;;20.75;10.55;;;-2.40;76.70;;;;;;5043375;28;20020;-84
2021/12/27 09:10:58;;;;;;;33.47;13.00;;;-2.40;76.40;;;;;;5040961;28;20116;-81
2021/12/27 09:13:29;;;;;;;45.20;14.95;;;-2.50;76.30;;;;;;5033889;28;20084;-82
2021/12/27 09:15:56;;;;;;;38.88;14.25;;;-2.60;76.80;;;;;;5039244;28;20083;-83
2021/12/27 09:18:22;;;;;;;81.25;28.35;;;-2.50;77.10;;;;;;5034846;28;20029;-80
2021/12/27 09:20:48;;;;;;;23.17;9.00;;;-2.40;77.30;;;;;;5046371;28;20032;-81
2021/12/27 09:23:14;;;;;;;33.03;13.00;;;-2.40;77.60;;;;;;5043252;28;20459;-82
2021/12/27 09:25:39;;;;;;;27.77;13.77;;;-2.40;76.80;;;;;;5050766;28;20450;-83
2021/12/27 09:28:05;;;;;;;37.22;13.95;;;-2.40;76.70;;;;;;5034098;28;20108;-83
2021/12/27 09:30:31;;;;;;;39.50;15.00;;;-2.30;76.80;;;;;;5038289;28;20144;-81
2021/12/27 09:32:57;;;;;;;54.83;18.13;;;-2.30;76.60;;;;;;5045112;28;20032;-80
2021/12/27 09:35:22;;;;;;;56.50;22.40;;;-2.30;76.40;;;;;;5044861;28;20475;-83
2021/12/27 09:37:48;;;;;;;82.32;24.95;;;-2.40;76.70;;;;;;5039352;28;20254;-82
2021/12/27 09:40:14;;;;;;;77.13;24.67;;;-2.30;76.90;;;;;;5041518;28;20045;-83
2021/12/27 09:42:39;;;;;;;62.60;21.27;;;-2.30;77.40;;;;;;5046805;28;20052;-83
2021/12/27 09:45:08;;;;;;;70.15;24.95;;;-2.30;77.10;;;;;;5040562;28;20380;-82
2021/12/27 09:47:34;;;;;;;24.52;11.45;;;-2.30;77.20;;;;;;5037528;28;20025;-82
2021/12/27 09:50:01;;;;;;;27.90;11.73;;;-2.30;77.40;;;;;;5038860;28;20029;-83
2021/12/27 09:52:27;;;;;;;34.08;13.60;;;-2.20;77.30;;;;;;5039571;28;20057;-82
2021/12/27 09:54:52;;;;;;;43.53;17.15;;;-2.10;77.10;;;;;;5035883;28;20529;-81
2021/12/27 09:57:18;;;;;;;18.52;8.93;;;-2.10;76.70;;;;;;5034415;28;20029;-85
2021/12/27 09:59:44;;;;;;;33.38;12.98;;;-2.10;76.40;;;;;;5034313;28;20034;-84
2021/12/27 10:02:11;;;;;;;49.80;15.32;;;-2.10;76.20;;;;;;5040027;28;20376;-83
2021/12/27 10:04:37;;;;;;;120.38;34.38;;;-2.20;76.30;;;;;;5040274;28;20399;-80
2021/12/27 10:07:03;;;;;;;86.32;26.73;;;-2.20;76.30;;;;;;5039344;28;20037;-79
2021/12/27 10:09:32;;;;;;;128.80;37.40;;;-2.20;76.30;;;;;;5042230;28;20031;-79
2021/12/27 10:11:59;;;;;;;87.85;27.15;;;-2.30;76.40;;;;;;5050184;28;20395;-83
2021/12/27 10:14:25;;;;;;;123.78;33.88;;;-2.30;76.80;;;;;;5042078;28;20029;-83
2021/12/27 10:17:10;;;;;;;58.00;19.00;;;-2.30;77.10;;;;;;5042299;28;20056;-79
2021/12/27 10:19:36;;;;;;;56.28;21.08;;;-2.30;77.40;;;;;;5036394;28;20018;-81
2021/12/27 10:22:03;;;;;;;93.78;26.42;;;-2.10;77.60;;;;;;5037123;28;20399;-82
2021/12/27 10:24:30;;;;;;;90.10;25.90;;;-2.10;77.60;;;;;;5037653;28;20092;-85
2021/12/27 10:27:01;;;;;;;35.65;13.32;;;-2.10;77.50;;;;;;5048991;28;20379;-83
2021/12/27 10:29:38;;;;;;;39.63;14.25;;;-2.00;77.40;;;;;;5046534;28;20025;-87
2021/12/27 10:32:18;;;;;;;29.45;10.75;;;-2.00;77.20;;;;;;5040613;28;20482;-88
2021/12/27 10:34:50;;;;;;;32.22;12.15;;;-2.00;76.90;;;;;;5036437;28;20029;-81
2021/12/27 10:37:32;;;;;;;26.08;11.60;;;-2.00;77.00;;;;;;5038994;28;20037;-84
2021/12/27 10:40:19;;;;;;;41.67;15.23;;;-2.00;76.90;;;;;;5036265;28;20368;-84
2021/12/27 10:42:47;;;;;;;37.15;14.63;;;-2.00;77.10;;;;;;5040395;28;20468;-84
2021/12/27 10:45:22;;;;;;;40.88;14.52;;;-2.10;77.00;;;;;;5038787;28;20068;-81
2021/12/27 10:48:02;;;;;;;37.80;15.75;;;-2.10;77.40;;;;;;5036218;28;20036;-80
2021/12/27 10:50:32;;;;;;;53.28;18.02;;;-2.00;77.60;;;;;;5034925;28;20372;-83
2021/12/27 10:53:05;;;;;;;50.65;20.02;;;-2.00;77.60;;;;;;5042904;28;20047;-82
2021/12/27 10:55:46;;;;;;;32.92;13.77;;;-2.00;77.70;;;;;;5055515;28;20078;-80
2021/12/27 10:58:19;;;;;;;38.17;14.18;;;-1.90;77.70;;;;;;5045988;28;20025;-82
2021/12/27 11:00:58;;;;;;;39.53;13.20;;;-1.80;77.40;;;;;;5038753;28;20503;-84
2021/12/27 11:03:34;;;;;;;41.28;16.67;;;-1.80;77.00;;;;;;5035653;28;20036;-84
2021/12/27 11:06:03;;;;;;;42.58;15.88;;;-1.90;76.50;;;;;;5039790;28;20034;-83
2021/12/27 11:08:30;;;;;;;45.13;16.85;;;-2.00;76.50;;;;;;5037385;28;20476;-83
2021/12/27 11:10:56;;;;;;;245.82;58.38;;;-2.00;76.80;;;;;;5036352;28;20076;-82
2021/12/27 11:13:23;;;;;;;167.10;42.45;;;-2.10;76.60;;;;;;5036859;28;20053;-81
2021/12/27 11:15:50;;;;;;;71.95;25.38;;;-2.20;76.90;;;;;;5038028;28;20049;-83
2021/12/27 11:18:16;;;;;;;78.40;22.63;;;-2.20;77.30;;;;;;5045517;28;20035;-83
2021/12/27 11:20:45;;;;;;;91.13;28.10;;;-2.10;77.90;;;;;;5034685;28;20037;-83
2021/12/27 11:23:12;;;;;;;110.53;32.05;;;-2.10;77.70;;;;;;5043492;28;20059;-81
2021/12/27 11:25:44;;;;;;;123.53;36.55;;;-2.10;77.80;;;;;;5046235;28;20103;-85
2021/12/27 11:28:32;;;;;;;107.95;29.95;;;-2.10;77.80;;;;;;5039236;28;20025;-83
2021/12/27 11:31:01;;;;;;;97.85;33.42;;;-2.00;78.20;;;;;;5037244;28;20105;-85
2021/12/27 11:33:27;;;;;;;38.28;17.08;;;-2.00;78.00;;;;;;5036862;28;20542;-83
2021/12/27 11:35:58;;;;;;;33.17;13.60;;;-1.90;78.00;;;;;;5037557;28;20026;-82
2021/12/27 11:38:31;;;;;;;33.05;14.85;;;-1.90;77.70;;;;;;5041492;28;20030;-87
2021/12/27 11:40:59;;;;;;;34.90;14.48;;;-2.00;76.90;;;;;;5051333;28;20416;-72
2021/12/27 11:43:24;;;;;;;40.03;17.73;;;-2.00;77.30;;;;;;5049605;28;20424;-86
2021/12/27 11:45:54;;;;;;;53.45;20.00;;;-2.00;77.30;;;;;;5051930;28;20097;-77
2021/12/27 11:48:23;;;;;;;59.45;21.83;;;-2.10;77.30;;;;;;5043787;28;20487;-85
2021/12/27 11:51:06;;;;;;;41.00;17.80;;;-2.00;77.50;;;;;;5044114;28;20025;-85
2021/12/27 11:53:45;;;;;;;30.40;12.52;;;-2.00;77.30;;;;;;5038586;28;20463;-83
2021/12/27 11:56:17;;;;;;;41.90;16.10;;;-2.00;76.90;;;;;;5041618;28;20056;-80
2021/12/27 11:58:46;;;;;;;37.38;16.08;;;-2.10;76.70;;;;;;5045890;28;20110;-78
2021/12/27 12:01:20;;;;;;;40.83;17.30;;;-2.20;76.90;;;;;;5036553;28;20075;-80
2021/12/27 12:03:47;;;;;;;33.33;15.43;;;-2.20;77.20;;;;;;5041790;28;20410;-79
2021/12/27 12:06:38;;;;;;;34.17;14.27;;;-2.20;77.50;;;;;;5048584;28;20033;-78
2021/12/27 12:09:43;;;;;;;34.10;15.57;;;-2.20;77.60;;;;;;5044003;28;20029;-79
2021/12/27 12:12:12;;;;;;;26.20;11.13;;;-2.20;77.60;;;;;;5038094;28;20556;-79
2021/12/27 12:14:38;;;;;;;26.23;11.27;;;-2.20;77.60;;;;;;5045291;28;20060;-78
2021/12/27 12:17:06;;;;;;;25.98;13.10;;;-2.20;77.60;;;;;;5042269;28;20057;-77
2021/12/27 12:19:47;;;;;;;21.30;10.15;;;-2.30;77.80;;;;;;5041559;28;20017;-79
2021/12/27 12:22:45;;;;;;;15.95;9.25;;;-2.30;78.00;;;;;;5037419;28;20032;-80
2021/12/27 12:25:12;;;;;;;21.00;10.20;;;-2.30;78.30;;;;;;5041698;28;20041;-79
2021/12/27 12:27:50;;;;;;;30.60;11.85;;;-2.30;78.30;;;;;;5042536;28;20043;-79
2021/12/27 12:30:16;;;;;;;25.90;11.48;;;-2.30;78.40;;;;;;5039126;28;20042;-79
2021/12/27 12:32:57;;;;;;;24.10;9.07;;;-2.30;78.50;;;;;;5047124;28;20026;-78
2021/12/27 12:35:45;;;;;;;25.50;11.77;;;-2.30;78.40;;;;;;5046644;28;20035;-77